Kingsville Naval Air Station
KNQI : now visible

Airfield :











YOU CAN JOIN US ON...

 
LOGIN :

Register | Disclaimer

   EN    FR    IT 

 









Legend :    VFR   Marginal VFR   IFR   Intensive IFR   Very Intensive IFR
Visi :
Ceiling :
>= 8 km
>= 3000ft
5 to 8 km
1000 to 3000 ft
1500m to 5 km
500 to 1000 ft
800 to 1500m
200 to 500 ft
< 800m
< 200 ft
Symbols :   Thunderstorms  Fog  Heavy snow  Heavy precipitations  Wind > 20 kt






- Airport Elevation : 50 ft


KNQI - Kingsville Naval Air Station

CURRENT METAR :
  • 061456Z 36003KT 5SM BR OVC012 22/21 A3014 RMK AO2 SLP201 T02220206 52023

EXPIRED METARs :
  • 061356Z COR 02002KT 5SM BR OVC012 21/20 A3011 RMK AO2 SLP194 T02110200
  • 061256Z 00000KT 6SM BR OVC013 21/20 A3009 RMK AO2 SLP186 T02110200

TAF TAF KNQI
Valid from the 06 at 15:00 until the 07 at 15:00 UTC


0615/0715 34004KT 8000 BR OVC012 QNH3008INS
BECMG 0616/0617 35010KT 9999 SCT025 BKN250 QNH3008INS
FM061800 36012G18KT 9999 FEW035 SCT250 QNH3009INS
FM070200 01008KT 9999 FEW250 QNH3017INS
FM070900 36005KT 9999 FEW020 FEW250 QNH3021INS T27/0620Z T11/0713Z FN20067



MET'MAP, your aeronautical weather chart ! - Copyright ORBIFLY December 2007 - Disclaimer

ORBIFLY MET'MAP TEAM :

Programming & Development : Alexandra Zaïnal
Concept & original design : Baudouin d'Aumeries
Assistance for programming : Marc-Olivier Méhu
Technical & hardware support : Manuel Goepfert

Contact : metmap@orbifly.com




SOURCES & CREDITS :

   NOAA       Earth
Advisory